sensor_id;sensor_type;location;lat;lon;timestamp;pressure;altitude;pressure_sealevel;temperature;humidity
48796;BME280;34607;48.520;-1.330;2023-02-13T09:41:18;101854.88;;;7.64;92.57
48796;BME280;34607;48.520;-1.330;2023-02-13T09:43:49;101844.31;;;7.76;92.16
48796;BME280;34607;48.520;-1.330;2023-02-13T09:46:45;101858.78;;;8.06;91.28
48796;BME280;34607;48.520;-1.330;2023-02-13T09:49:28;101869.78;;;8.37;90.95
48796;BME280;34607;48.520;-1.330;2023-02-13T09:52:08;101861.00;;;8.68;89.87
48796;BME280;34607;48.520;-1.330;2023-02-13T09:54:40;101860.03;;;8.84;88.95
48796;BME280;34607;48.520;-1.330;2023-02-13T09:57:16;101853.88;;;9.17;89.10
48796;BME280;34607;48.520;-1.330;2023-02-13T09:59:59;101863.25;;;9.53;88.00
48796;BME280;34607;48.520;-1.330;2023-02-13T10:02:45;101866.81;;;9.37;85.84
48796;BME280;34607;48.520;-1.330;2023-02-13T10:05:29;101867.59;;;9.73;87.22
48796;BME280;34607;48.520;-1.330;2023-02-13T10:08:03;101865.00;;;9.73;84.92
48796;BME280;34607;48.520;-1.330;2023-02-13T10:10:46;101869.88;;;9.87;84.10
48796;BME280;34607;48.520;-1.330;2023-02-13T10:13:29;101867.63;;;9.94;83.94
48796;BME280;34607;48.520;-1.330;2023-02-13T10:16:05;101860.81;;;10.16;84.05
48796;BME280;34607;48.520;-1.330;2023-02-13T10:18:42;101850.47;;;10.18;83.26
48796;BME280;34607;48.520;-1.330;2023-02-13T10:21:11;101860.41;;;10.28;82.97
48796;BME280;34607;48.520;-1.330;2023-02-13T10:23:43;101853.22;;;10.40;82.81
48796;BME280;34607;48.520;-1.330;2023-02-13T10:26:17;101862.06;;;10.45;81.72
48796;BME280;34607;48.520;-1.330;2023-02-13T10:28:51;101856.59;;;10.60;82.19
48796;BME280;34607;48.520;-1.330;2023-02-13T10:31:35;101869.56;;;10.83;81.46
48796;BME280;34607;48.520;-1.330;2023-02-13T10:34:05;101863.00;;;10.91;80.77
48796;BME280;34607;48.520;-1.330;2023-02-13T10:36:42;101847.81;;;11.00;80.96
48796;BME280;34607;48.520;-1.330;2023-02-13T10:39:21;101865.91;;;10.99;78.59
48796;BME280;34607;48.520;-1.330;2023-02-13T10:41:51;101862.59;;;11.03;79.31
48796;BME280;34607;48.520;-1.330;2023-02-13T10:44:41;101862.31;;;11.18;78.87
48796;BME280;34607;48.520;-1.330;2023-02-13T10:47:21;101869.25;;;11.19;78.60
48796;BME280;34607;48.520;-1.330;2023-02-13T10:50:02;101865.53;;;11.35;78.79
48796;BME280;34607;48.520;-1.330;2023-02-13T10:52:41;101864.81;;;11.39;77.01
48796;BME280;34607;48.520;-1.330;2023-02-13T10:55:28;101864.47;;;11.30;77.49
48796;BME280;34607;48.520;-1.330;2023-02-13T10:58:11;101861.13;;;11.56;78.11
48796;BME280;34607;48.520;-1.330;2023-02-13T11:00:46;101857.97;;;11.64;77.03
48796;BME280;34607;48.520;-1.330;2023-02-13T11:03:19;101859.19;;;11.51;76.25
48796;BME280;34607;48.520;-1.330;2023-02-13T11:05:47;101860.56;;;11.65;77.21
48796;BME280;34607;48.520;-1.330;2023-02-13T11:08:17;101864.78;;;11.86;76.07
48796;BME280;34607;48.520;-1.330;2023-02-13T11:10:46;101867.03;;;11.76;75.87
48796;BME280;34607;48.520;-1.330;2023-02-13T11:13:16;101875.66;;;11.75;75.22
48796;BME280;34607;48.520;-1.330;2023-02-13T11:15:57;101867.72;;;11.71;74.19
48796;BME280;34607;48.520;-1.330;2023-02-13T11:18:28;101866.72;;;11.67;75.58
48796;BME280;34607;48.520;-1.330;2023-02-13T11:21:07;101845.25;;;11.71;75.36
48796;BME280;34607;48.520;-1.330;2023-02-13T11:23:41;101867.84;;;11.98;74.64
48796;BME280;34607;48.520;-1.330;2023-02-13T11:26:12;101822.06;;;12.00;75.16
48796;BME280;34607;48.520;-1.330;2023-02-13T11:28:47;101863.31;;;12.18;74.21
48796;BME280;34607;48.520;-1.330;2023-02-13T11:31:28;101802.78;;;11.93;74.36
48796;BME280;34607;48.520;-1.330;2023-02-13T11:33:56;101843.88;;;12.58;74.80
48796;BME280;34607;48.520;-1.330;2023-02-13T11:36:26;101829.53;;;12.71;73.94
48796;BME280;34607;48.520;-1.330;2023-02-13T11:39:02;101845.34;;;12.77;72.91
48796;BME280;34607;48.520;-1.330;2023-02-13T11:41:36;101796.69;;;12.44;73.21
48796;BME280;34607;48.520;-1.330;2023-02-13T11:44:14;101842.66;;;13.03;73.38
48796;BME280;34607;48.520;-1.330;2023-02-13T11:46:48;101837.00;;;12.87;72.18
48796;BME280;34607;48.520;-1.330;2023-02-13T11:49:18;101778.69;;;12.79;72.49
48796;BME280;34607;48.520;-1.330;2023-02-13T11:51:48;101834.88;;;13.32;71.50
48796;BME280;34607;48.520;-1.330;2023-02-13T11:54:31;101831.28;;;13.29;69.48
48796;BME280;34607;48.520;-1.330;2023-02-13T11:57:00;101806.03;;;13.25;71.39
48796;BME280;34607;48.520;-1.330;2023-02-13T11:59:32;101814.13;;;13.35;71.04
48796;BME280;34607;48.520;-1.330;2023-02-13T12:02:17;101813.41;;;13.10;69.97
48796;BME280;34607;48.520;-1.330;2023-02-13T12:04:46;101825.00;;;13.21;70.53
48796;BME280;34607;48.520;-1.330;2023-02-13T12:07:18;101814.72;;;13.26;70.62
48796;BME280;34607;48.520;-1.330;2023-02-13T12:09:50;101779.03;;;12.91;70.48
48796;BME280;34607;48.520;-1.330;2023-02-13T12:12:23;101813.59;;;13.46;71.70
48796;BME280;34607;48.520;-1.330;2023-02-13T12:14:52;101811.59;;;14.01;70.38
48796;BME280;34607;48.520;-1.330;2023-02-13T12:17:22;101799.03;;;13.85;69.97
48796;BME280;34607;48.520;-1.330;2023-02-13T12:19:51;101805.34;;;13.93;69.02
48796;BME280;34607;48.520;-1.330;2023-02-13T12:22:31;101772.28;;;13.59;66.56
48796;BME280;34607;48.520;-1.330;2023-02-13T12:25:18;101795.22;;;13.72;65.53
48796;BME280;34607;48.520;-1.330;2023-02-13T12:27:58;101792.31;;;13.93;67.61
48796;BME280;34607;48.520;-1.330;2023-02-13T12:30:53;101799.53;;;13.72;64.89
48796;BME280;34607;48.520;-1.330;2023-02-13T12:33:43;101782.38;;;13.78;64.94
48796;BME280;34607;48.520;-1.330;2023-02-13T12:36:16;101733.25;;;13.57;65.16
48796;BME280;34607;48.520;-1.330;2023-02-13T12:38:56;101793.09;;;14.24;65.69
48796;BME280;34607;48.520;-1.330;2023-02-13T12:41:34;101789.50;;;14.57;64.05
48796;BME280;34607;48.520;-1.330;2023-02-13T12:47:14;101781.72;;;14.22;64.02
48796;BME280;34607;48.520;-1.330;2023-02-13T12:53:06;101764.09;;;14.12;61.75
48796;BME280;34607;48.520;-1.330;2023-02-13T12:55:55;101744.50;;;13.91;61.36
48796;BME280;34607;48.520;-1.330;2023-02-13T12:58:45;101756.69;;;13.92;60.73
48796;BME280;34607;48.520;-1.330;2023-02-13T13:01:21;101758.41;;;13.92;61.85
48796;BME280;34607;48.520;-1.330;2023-02-13T13:03:58;101770.88;;;14.03;61.58
48796;BME280;34607;48.520;-1.330;2023-02-13T13:06:40;101759.44;;;13.65;61.38
48796;BME280;34607;48.520;-1.330;2023-02-13T13:09:21;101767.31;;;13.66;61.68
48796;BME280;34607;48.520;-1.330;2023-02-13T13:12:09;101762.53;;;13.83;61.46
48796;BME280;34607;48.520;-1.330;2023-02-13T13:14:44;101750.34;;;13.82;61.92
48796;BME280;34607;48.520;-1.330;2023-02-13T13:17:28;101718.03;;;13.41;61.98
48796;BME280;34607;48.520;-1.330;2023-02-13T13:23:31;101750.72;;;13.98;62.24
48796;BME280;34607;48.520;-1.330;2023-02-13T13:26:08;101753.56;;;14.43;60.81
48796;BME280;34607;48.520;-1.330;2023-02-13T13:28:40;101747.66;;;14.51;61.41
48796;BME280;34607;48.520;-1.330;2023-02-13T13:31:09;101758.44;;;14.28;60.47
48796;BME280;34607;48.520;-1.330;2023-02-13T13:33:40;101752.16;;;14.20;62.00
48796;BME280;34607;48.520;-1.330;2023-02-13T13:36:19;101706.38;;;13.93;61.92
48796;BME280;34607;48.520;-1.330;2023-02-13T13:38:54;101735.53;;;14.15;62.43
48796;BME280;34607;48.520;-1.330;2023-02-13T13:41:33;101737.47;;;14.23;60.86
48796;BME280;34607;48.520;-1.330;2023-02-13T13:44:17;101696.25;;;14.05;60.21
48796;BME280;34607;48.520;-1.330;2023-02-13T13:46:51;101694.56;;;14.08;60.51
48796;BME280;34607;48.520;-1.330;2023-02-13T13:49:33;101734.97;;;14.28;60.56
48796;BME280;34607;48.520;-1.330;2023-02-13T13:52:26;101728.69;;;14.20;59.50
48796;BME280;34607;48.520;-1.330;2023-02-13T13:54:54;101658.84;;;13.67;60.05
48796;BME280;34607;48.520;-1.330;2023-02-13T13:57:24;101727.47;;;14.04;60.63
48796;BME280;34607;48.520;-1.330;2023-02-13T13:59:58;101667.66;;;13.72;60.09
48796;BME280;34607;48.520;-1.330;2023-02-13T14:02:35;101668.84;;;13.85;60.36
48796;BME280;34607;48.520;-1.330;2023-02-13T14:05:17;101615.09;;;13.51;58.73
48796;BME280;34607;48.520;-1.330;2023-02-13T14:07:46;101712.56;;;13.98;60.35
48796;BME280;34607;48.520;-1.330;2023-02-13T14:13:37;101712.25;;;13.86;60.07
48796;BME280;34607;48.520;-1.330;2023-02-13T14:16:09;101656.97;;;13.61;59.73
48796;BME280;34607;48.520;-1.330;2023-02-13T14:18:37;101708.03;;;13.91;60.39
48796;BME280;34607;48.520;-1.330;2023-02-13T14:21:09;101715.47;;;13.76;59.75
48796;BME280;34607;48.520;-1.330;2023-02-13T14:23:45;101698.97;;;13.75;60.57
48796;BME280;34607;48.520;-1.330;2023-02-13T14:26:29;101702.91;;;13.94;60.23
48796;BME280;34607;48.520;-1.330;2023-02-13T14:31:56;101679.19;;;13.48;60.39
48796;BME280;34607;48.520;-1.330;2023-02-13T14:34:27;101685.63;;;13.61;60.36
48796;BME280;34607;48.520;-1.330;2023-02-13T14:37:06;101690.03;;;13.65;59.95
48796;BME280;34607;48.520;-1.330;2023-02-13T14:39:42;101686.53;;;13.63;60.16
48796;BME280;34607;48.520;-1.330;2023-02-13T14:42:22;101693.66;;;13.71;60.02
48796;BME280;34607;48.520;-1.330;2023-02-13T14:44:54;101684.38;;;13.82;60.84
48796;BME280;34607;48.520;-1.330;2023-02-13T14:47:26;101663.72;;;13.88;60.84
48796;BME280;34607;48.520;-1.330;2023-02-13T14:49:55;101683.06;;;13.99;60.35
48796;BME280;34607;48.520;-1.330;2023-02-13T14:52:25;101644.81;;;13.60;60.58
48796;BME280;34607;48.520;-1.330;2023-02-13T14:54:58;101686.91;;;13.79;60.39
48796;BME280;34607;48.520;-1.330;2023-02-13T14:57:28;101679.88;;;13.75;60.21
48796;BME280;34607;48.520;-1.330;2023-02-13T15:00:02;101667.69;;;13.74;60.44
48796;BME280;34607;48.520;-1.330;2023-02-13T15:02:34;101681.78;;;13.82;60.96
48796;BME280;34607;48.520;-1.330;2023-02-13T15:05:04;101673.06;;;13.80;60.65
48796;BME280;34607;48.520;-1.330;2023-02-13T15:07:35;101654.22;;;13.55;61.08
48796;BME280;34607;48.520;-1.330;2023-02-13T15:10:19;101682.41;;;13.72;60.60
48796;BME280;34607;48.520;-1.330;2023-02-13T15:12:55;101648.66;;;13.41;60.25
48796;BME280;34607;48.520;-1.330;2023-02-13T15:15:26;101676.94;;;13.61;60.69
48796;BME280;34607;48.520;-1.330;2023-02-13T15:17:57;101670.78;;;13.57;60.84
48796;BME280;34607;48.520;-1.330;2023-02-13T15:20:26;101673.63;;;13.68;60.94
48796;BME280;34607;48.520;-1.330;2023-02-13T15:22:54;101678.97;;;13.74;60.75
48796;BME280;34607;48.520;-1.330;2023-02-13T15:25:28;101683.22;;;13.71;60.45
48796;BME280;34607;48.520;-1.330;2023-02-13T15:27:58;101678.97;;;13.73;61.03
48796;BME280;34607;48.520;-1.330;2023-02-13T15:30:28;101677.34;;;13.78;60.87
48796;BME280;34607;48.520;-1.330;2023-02-13T15:32:58;101683.22;;;13.71;60.76
48796;BME280;34607;48.520;-1.330;2023-02-13T15:35:27;101681.41;;;13.66;61.06
48796;BME280;34607;48.520;-1.330;2023-02-13T15:37:55;101684.00;;;13.66;61.44
48796;BME280;34607;48.520;-1.330;2023-02-13T15:40:25;101684.06;;;13.68;61.79
48796;BME280;34607;48.520;-1.330;2023-02-13T15:42:53;101672.81;;;13.71;61.93
48796;BME280;34607;48.520;-1.330;2023-02-13T15:45:22;101678.81;;;13.66;61.99
48796;BME280;34607;48.520;-1.330;2023-02-13T15:47:52;101678.63;;;13.60;61.99
48796;BME280;34607;48.520;-1.330;2023-02-13T15:50:27;101681.00;;;13.51;62.21
48796;BME280;34607;48.520;-1.330;2023-02-13T15:52:56;101681.63;;;13.41;62.79
48796;BME280;34607;48.520;-1.330;2023-02-13T15:55:25;101676.47;;;13.42;63.07
48796;BME280;34607;48.520;-1.330;2023-02-13T15:57:54;101677.38;;;13.44;62.67
48796;BME280;34607;48.520;-1.330;2023-02-13T16:00:24;101658.69;;;13.27;62.99
48796;BME280;34607;48.520;-1.330;2023-02-13T16:02:54;101679.69;;;13.34;62.78
48796;BME280;34607;48.520;-1.330;2023-02-13T16:05:23;101660.94;;;13.14;62.85
48796;BME280;34607;48.520;-1.330;2023-02-13T16:07:53;101679.38;;;13.23;63.06
48796;BME280;34607;48.520;-1.330;2023-02-13T16:10:27;101669.19;;;12.99;63.43
48796;BME280;34607;48.520;-1.330;2023-02-13T16:12:55;101687.72;;;12.79;62.77
48796;BME280;34607;48.520;-1.330;2023-02-13T16:15:25;101684.44;;;12.86;63.18
48796;BME280;34607;48.520;-1.330;2023-02-13T16:17:55;101692.28;;;12.88;63.24
48796;BME280;34607;48.520;-1.330;2023-02-13T16:20:25;101686.13;;;12.84;63.26
48796;BME280;34607;48.520;-1.330;2023-02-13T16:22:54;101677.94;;;12.70;63.34
48796;BME280;34607;48.520;-1.330;2023-02-13T16:25:25;101688.53;;;12.78;63.73
48796;BME280;34607;48.520;-1.330;2023-02-13T16:27:55;101643.47;;;12.47;63.70
48796;BME280;34607;48.520;-1.330;2023-02-13T16:30:30;101680.38;;;12.66;63.53
48796;BME280;34607;48.520;-1.330;2023-02-13T16:33:26;101692.06;;;12.50;63.16
48796;BME280;34607;48.520;-1.330;2023-02-13T16:35:55;101698.78;;;12.43;64.07
48796;BME280;34607;48.520;-1.330;2023-02-13T16:38:26;101692.72;;;12.43;64.29
48796;BME280;34607;48.520;-1.330;2023-02-13T16:40:54;101677.47;;;12.26;64.40
48796;BME280;34607;48.520;-1.330;2023-02-13T16:43:49;101700.75;;;12.23;64.59
48796;BME280;34607;48.520;-1.330;2023-02-13T16:46:25;101700.56;;;12.17;65.33
48796;BME280;34607;48.520;-1.330;2023-02-13T16:49:04;101703.75;;;12.08;65.69
48796;BME280;34607;48.520;-1.330;2023-02-13T16:51:39;101700.97;;;12.02;66.25
48796;BME280;34607;48.520;-1.330;2023-02-13T16:54:19;101678.69;;;11.83;66.39
48796;BME280;34607;48.520;-1.330;2023-02-13T16:56:49;101676.78;;;11.77;66.83
48796;BME280;34607;48.520;-1.330;2023-02-13T16:59:27;101703.22;;;11.91;66.53
48796;BME280;34607;48.520;-1.330;2023-02-13T17:02:20;101699.16;;;11.74;66.80
48796;BME280;34607;48.520;-1.330;2023-02-13T17:04:50;101713.81;;;11.73;67.15
48796;BME280;34607;48.520;-1.330;2023-02-13T17:07:29;101715.31;;;11.67;67.22
48796;BME280;34607;48.520;-1.330;2023-02-13T17:09:58;101717.72;;;11.60;67.71
48796;BME280;34607;48.520;-1.330;2023-02-13T17:12:27;101725.34;;;11.56;67.83
48796;BME280;34607;48.520;-1.330;2023-02-13T17:14:56;101722.44;;;11.47;68.23
48796;BME280;34607;48.520;-1.330;2023-02-13T17:17:27;101722.28;;;11.42;68.27
48796;BME280;34607;48.520;-1.330;2023-02-13T17:19:56;101721.06;;;11.32;68.52
48796;BME280;34607;48.520;-1.330;2023-02-13T17:22:33;101720.03;;;11.27;68.63
48796;BME280;34607;48.520;-1.330;2023-02-13T17:25:02;101721.44;;;11.17;68.74
48796;BME280;34607;48.520;-1.330;2023-02-13T17:27:29;101728.03;;;11.09;69.18
48796;BME280;34607;48.520;-1.330;2023-02-13T17:29:56;101731.06;;;10.97;69.56
48796;BME280;34607;48.520;-1.330;2023-02-13T17:32:24;101728.91;;;10.85;69.78
48796;BME280;34607;48.520;-1.330;2023-02-13T17:34:52;101735.78;;;10.85;69.88
48796;BME280;34607;48.520;-1.330;2023-02-13T17:37:22;101738.06;;;10.77;70.38
48796;BME280;34607;48.520;-1.330;2023-02-13T17:39:50;101692.72;;;10.42;70.53
48796;BME280;34607;48.520;-1.330;2023-02-13T17:42:20;101740.88;;;10.59;70.76
48796;BME280;34607;48.520;-1.330;2023-02-13T17:44:47;101737.97;;;10.52;70.71
48796;BME280;34607;48.520;-1.330;2023-02-13T17:47:15;101758.88;;;10.56;71.05
48796;BME280;34607;48.520;-1.330;2023-02-13T17:49:42;101757.09;;;10.55;70.97
48796;BME280;34607;48.520;-1.330;2023-02-13T17:52:14;101757.88;;;10.53;70.97
48796;BME280;34607;48.520;-1.330;2023-02-13T17:54:44;101725.63;;;10.23;70.88
48796;BME280;34607;48.520;-1.330;2023-02-13T17:57:13;101711.28;;;10.10;71.25
48796;BME280;34607;48.520;-1.330;2023-02-13T17:59:41;101755.31;;;10.32;71.32
48796;BME280;34607;48.520;-1.330;2023-02-13T18:02:12;101705.38;;;9.92;71.40
48796;BME280;34607;48.520;-1.330;2023-02-13T18:04:39;101772.59;;;10.33;71.49
48796;BME280;34607;48.520;-1.330;2023-02-13T18:07:07;101754.69;;;10.16;71.84
48796;BME280;34607;48.520;-1.330;2023-02-13T18:09:35;101784.25;;;10.23;71.78
48796;BME280;34607;48.520;-1.330;2023-02-13T18:12:04;101786.69;;;10.18;71.84
48796;BME280;34607;48.520;-1.330;2023-02-13T18:14:32;101779.72;;;9.96;72.49
48796;BME280;34607;48.520;-1.330;2023-02-13T18:16:59;101774.97;;;9.86;72.80
48796;BME280;34607;48.520;-1.330;2023-02-13T18:19:26;101789.63;;;9.85;73.43
48796;BME280;34607;48.520;-1.330;2023-02-13T18:21:53;101793.84;;;9.83;73.89
48796;BME280;34607;48.520;-1.330;2023-02-13T18:24:20;101764.47;;;9.62;74.20
48796;BME280;34607;48.520;-1.330;2023-02-13T18:26:48;101800.28;;;9.72;74.84
48796;BME280;34607;48.520;-1.330;2023-02-13T18:29:16;101719.63;;;9.21;74.87
48796;BME280;34607;48.520;-1.330;2023-02-13T18:31:43;101811.16;;;9.65;75.72
48796;BME280;34607;48.520;-1.330;2023-02-13T18:34:10;101753.06;;;9.37;75.75
48796;BME280;34607;48.520;-1.330;2023-02-13T18:36:38;101807.06;;;9.50;76.30
48796;BME280;34607;48.520;-1.330;2023-02-13T18:39:05;101800.75;;;9.44;76.85
48796;BME280;34607;48.520;-1.330;2023-02-13T18:42:02;101809.13;;;9.38;76.93
48796;BME280;34607;48.520;-1.330;2023-02-13T18:44:31;101806.25;;;9.32;77.35
48796;BME280;34607;48.520;-1.330;2023-02-13T18:46:58;101785.44;;;9.09;78.10
48796;BME280;34607;48.520;-1.330;2023-02-13T18:49:26;101814.56;;;9.25;77.71
48796;BME280;34607;48.520;-1.330;2023-02-13T18:51:53;101805.78;;;9.21;77.73
48796;BME280;34607;48.520;-1.330;2023-02-13T18:54:20;101796.72;;;9.11;78.42
48796;BME280;34607;48.520;-1.330;2023-02-13T18:56:47;101808.16;;;9.16;78.38
48796;BME280;34607;48.520;-1.330;2023-02-13T18:59:15;101776.91;;;8.92;78.68
48796;BME280;34607;48.520;-1.330;2023-02-13T19:01:44;101772.50;;;8.90;78.49
48796;BME280;34607;48.520;-1.330;2023-02-13T19:04:11;101779.00;;;8.81;79.26
48796;BME280;34607;48.520;-1.330;2023-02-13T19:06:40;101803.75;;;8.96;79.45
48796;BME280;34607;48.520;-1.330;2023-02-13T19:09:07;101804.44;;;8.92;79.79
48796;BME280;34607;48.520;-1.330;2023-02-13T19:11:35;101794.56;;;8.83;79.53
48796;BME280;34607;48.520;-1.330;2023-02-13T19:14:03;101806.72;;;8.86;80.04
48796;BME280;34607;48.520;-1.330;2023-02-13T19:16:32;101805.94;;;8.87;79.85
48796;BME280;34607;48.520;-1.330;2023-02-13T19:19:03;101805.94;;;8.87;79.73
48796;BME280;34607;48.520;-1.330;2023-02-13T19:21:33;101815.63;;;8.73;80.31
48796;BME280;34607;48.520;-1.330;2023-02-13T19:24:02;101780.84;;;8.48;80.62
48796;BME280;34607;48.520;-1.330;2023-02-13T19:26:29;101759.41;;;8.31;80.83
48796;BME280;34607;48.520;-1.330;2023-02-13T19:28:57;101817.47;;;8.57;80.96
48796;BME280;34607;48.520;-1.330;2023-02-13T19:31:28;101809.66;;;8.56;81.09
48796;BME280;34607;48.520;-1.330;2023-02-13T19:33:56;101807.44;;;8.46;81.35
48796;BME280;34607;48.520;-1.330;2023-02-13T19:36:26;101811.28;;;8.54;81.22
48796;BME280;34607;48.520;-1.330;2023-02-13T19:38:55;101804.31;;;8.53;81.26
48796;BME280;34607;48.520;-1.330;2023-02-13T19:41:23;101750.91;;;8.16;81.32
48796;BME280;34607;48.520;-1.330;2023-02-13T19:43:50;101811.28;;;8.37;81.85
48796;BME280;34607;48.520;-1.330;2023-02-13T19:46:19;101778.63;;;8.20;81.98
48796;BME280;34607;48.520;-1.330;2023-02-13T19:48:47;101810.50;;;8.38;82.08
48796;BME280;34607;48.520;-1.330;2023-02-13T19:51:16;101810.84;;;8.28;82.43
48796;BME280;34607;48.520;-1.330;2023-02-13T19:53:45;101808.34;;;8.30;82.10
48796;BME280;34607;48.520;-1.330;2023-02-13T19:56:13;101784.31;;;8.13;82.62
48796;BME280;34607;48.520;-1.330;2023-02-13T19:58:41;101795.25;;;8.09;82.76
48796;BME280;34607;48.520;-1.330;2023-02-13T20:01:09;101811.22;;;8.18;82.90
48796;BME280;34607;48.520;-1.330;2023-02-13T20:03:37;101809.50;;;8.18;82.69
48796;BME280;34607;48.520;-1.330;2023-02-13T20:06:06;101804.28;;;8.17;82.60
48796;BME280;34607;48.520;-1.330;2023-02-13T20:08:33;101809.28;;;8.14;83.13
48796;BME280;34607;48.520;-1.330;2023-02-13T20:11:03;101804.94;;;8.13;82.90
48796;BME280;34607;48.520;-1.330;2023-02-13T20:13:32;101793.34;;;8.04;82.93
48796;BME280;34607;48.520;-1.330;2023-02-13T20:15:59;101799.69;;;8.11;83.01
48796;BME280;34607;48.520;-1.330;2023-02-13T20:18:27;101800.50;;;8.10;82.93
48796;BME280;34607;48.520;-1.330;2023-02-13T20:20:54;101791.00;;;8.09;82.72
48796;BME280;34607;48.520;-1.330;2023-02-13T20:23:21;101803.31;;;8.15;82.85
48796;BME280;34607;48.520;-1.330;2023-02-13T20:25:49;101805.56;;;8.09;83.17
48796;BME280;34607;48.520;-1.330;2023-02-13T20:28:17;101807.34;;;8.10;83.03
48796;BME280;34607;48.520;-1.330;2023-02-13T20:30:45;101788.28;;;7.90;83.04
48796;BME280;34607;48.520;-1.330;2023-02-13T20:33:12;101805.94;;;7.98;83.50
48796;BME280;34607;48.520;-1.330;2023-02-13T20:35:39;101809.25;;;7.96;83.31
48796;BME280;34607;48.520;-1.330;2023-02-13T20:38:06;101808.38;;;7.95;83.45
48796;BME280;34607;48.520;-1.330;2023-02-13T20:40:33;101802.03;;;7.88;83.24
48796;BME280;34607;48.520;-1.330;2023-02-13T20:43:00;101773.91;;;7.77;83.11
48796;BME280;34607;48.520;-1.330;2023-02-13T20:45:29;101808.50;;;7.98;83.15
48796;BME280;34607;48.520;-1.330;2023-02-13T20:47:56;101809.97;;;7.93;83.28
48796;BME280;34607;48.520;-1.330;2023-02-13T20:50:23;101816.16;;;7.97;83.02
48796;BME280;34607;48.520;-1.330;2023-02-13T20:52:50;101771.00;;;7.71;83.03
48796;BME280;34607;48.520;-1.330;2023-02-13T20:55:17;101796.13;;;7.91;82.92
48796;BME280;34607;48.520;-1.330;2023-02-13T20:57:44;101811.84;;;7.96;82.77
48796;BME280;34607;48.520;-1.330;2023-02-13T21:00:12;101775.44;;;7.73;82.94
48796;BME280;34607;48.520;-1.330;2023-02-13T21:02:41;101804.09;;;7.96;82.76
48796;BME280;34607;48.520;-1.330;2023-02-13T21:05:08;101808.44;;;7.97;82.41
48796;BME280;34607;48.520;-1.330;2023-02-13T21:07:35;101811.91;;;7.97;82.45
48796;BME280;34607;48.520;-1.330;2023-02-13T21:10:03;101772.63;;;7.68;82.55
48796;BME280;34607;48.520;-1.330;2023-02-13T21:12:31;101813.22;;;7.89;82.74
48796;BME280;34607;48.520;-1.330;2023-02-13T21:14:59;101810.63;;;7.89;82.80
48796;BME280;34607;48.520;-1.330;2023-02-13T21:17:26;101803.66;;;7.86;82.81
48796;BME280;34607;48.520;-1.330;2023-02-13T21:19:55;101807.00;;;7.85;82.75
48796;BME280;34607;48.520;-1.330;2023-02-13T21:22:22;101777.78;;;7.68;82.70
48796;BME280;34607;48.520;-1.330;2023-02-13T21:24:49;101813.22;;;7.89;82.35
48796;BME280;34607;48.520;-1.330;2023-02-13T21:27:16;101809.25;;;7.79;82.32
48796;BME280;34607;48.520;-1.330;2023-02-13T21:29:43;101815.16;;;7.77;82.59
48796;BME280;34607;48.520;-1.330;2023-02-13T21:32:11;101816.63;;;7.72;82.31
48796;BME280;34607;48.520;-1.330;2023-02-13T21:34:38;101811.06;;;7.64;82.66
48796;BME280;34607;48.520;-1.330;2023-02-13T21:37:06;101783.22;;;7.40;82.68
48796;BME280;34607;48.520;-1.330;2023-02-13T21:39:33;101806.00;;;7.49;82.97
48796;BME280;34607;48.520;-1.330;2023-02-13T21:42:01;101819.19;;;7.55;82.90
48796;BME280;34607;48.520;-1.330;2023-02-13T21:44:29;101821.78;;;7.55;82.82
48796;BME280;34607;48.520;-1.330;2023-02-13T21:46:56;101809.78;;;7.39;82.80
48796;BME280;34607;48.520;-1.330;2023-02-13T21:49:24;101816.00;;;7.43;82.79
48796;BME280;34607;48.520;-1.330;2023-02-13T21:51:51;101825.50;;;7.44;82.91
48796;BME280;34607;48.520;-1.330;2023-02-13T21:54:20;101786.19;;;7.15;82.92
48796;BME280;34607;48.520;-1.330;2023-02-13T21:56:47;101788.03;;;7.18;82.66
48796;BME280;34607;48.520;-1.330;2023-02-13T21:59:15;101823.31;;;7.35;82.98
48796;BME280;34607;48.520;-1.330;2023-02-13T22:01:43;101827.81;;;7.23;83.07
48796;BME280;34607;48.520;-1.330;2023-02-13T22:04:11;101823.78;;;7.11;83.52
48796;BME280;34607;48.520;-1.330;2023-02-13T22:06:38;101823.22;;;7.17;83.42
48796;BME280;34607;48.520;-1.330;2023-02-13T22:09:07;101817.88;;;7.14;83.07
48796;BME280;34607;48.520;-1.330;2023-02-13T22:11:36;101803.56;;;7.03;83.14
48796;BME280;34607;48.520;-1.330;2023-02-13T22:14:05;101761.75;;;6.75;83.20
48796;BME280;34607;48.520;-1.330;2023-02-13T22:16:34;101820.78;;;7.04;83.02
48796;BME280;34607;48.520;-1.330;2023-02-13T22:19:02;101793.03;;;6.83;83.44
48796;BME280;34607;48.520;-1.330;2023-02-13T22:21:30;101807.72;;;7.01;83.32
48796;BME280;34607;48.520;-1.330;2023-02-13T22:23:58;101823.44;;;7.05;83.32
48796;BME280;34607;48.520;-1.330;2023-02-13T22:26:27;101808.53;;;7.00;83.06
48796;BME280;34607;48.520;-1.330;2023-02-13T22:28:58;101803.47;;;7.01;83.23
48796;BME280;34607;48.520;-1.330;2023-02-13T22:31:26;101773.75;;;6.91;82.93
48796;BME280;34607;48.520;-1.330;2023-02-13T22:33:54;101818.22;;;7.20;82.56
48796;BME280;34607;48.520;-1.330;2023-02-13T22:36:21;101788.13;;;7.03;82.52
48796;BME280;34607;48.520;-1.330;2023-02-13T22:38:49;101820.28;;;7.11;82.52
48796;BME280;34607;48.520;-1.330;2023-02-13T22:41:18;101663.25;;;6.15;82.55
